Huntly, Virginia
Current Conditions -  °F | °C
As of 12:35 AM on Thursday 18 Dec 2014 (Local Time) from KFRR Reporting Station
Overcast Overcast  
Wind Chill: 36°   Ceiling: 4500
Heat Index: 36°   Visibility: 10mi
Dew Point: 23°   Wind: 3mph
Humidity: 60%   Direction: 290°WNW
Pressure: 30.07"   Gusts: NA
Location:  38.83°N, 78.11°W
Report Text: KFRR 180535Z AUTO 29003KT 10SM OVC045 02/M05 A3007 RMK AO1
Loading
Personal Weather Stations






























Interactive Weather Map New forecast layout! Learn more

10-Day Weather Forecast

Advertisements
Track Severe Weather on mobile